This is the latest recevied weather packets stored in our database for station/object WO5CID. If no packets are shown the sender has not sent any weather packets the latest 1 day(s).
| Time | Temp. | Humidity | Pressure | Rain* | Wind** | Luminosity | Snow |
|---|---|---|---|---|---|---|---|
| 1777993144 | 27.78° C | 48% | 1017.1 hPa | 0 mm | 0 m/s | 601 W/m² | - |
| 1777992843 | 27.22° C | 49% | 1016.9 hPa | 0 mm | 0.89 m/s, 144° | 586 W/m² | - |
| 1777992541 | 27.78° C | 48% | 1017 hPa | 0 mm | 0.45 m/s, 132° | 725 W/m² | - |
| 1777992239 | 27.22° C | 49% | 1016.9 hPa | 0 mm | 0.45 m/s, 145° | 707 W/m² | - |
| 1777991935 | 27.22° C | 48% | 1016.9 hPa | 0 mm | 0.89 m/s, 239° | 661 W/m² | - |
| 1777991633 | 27.78° C | 48% | 1016.9 hPa | 0 mm | 1.79 m/s, 194° | 672 W/m² | - |
| 1777991329 | 27.22° C | 50% | 1017 hPa | 0 mm | 0.89 m/s, 195° | 669 W/m² | - |
| 1777991027 | 26.67° C | 52% | 1016.8 hPa | 0 mm | 0.45 m/s, 139° | 649 W/m² | - |
| 1777990724 | 26.11° C | 52% | 1016.9 hPa | 0 mm | 0.45 m/s, 162° | 634 W/m² | - |
| 1777990416 | 26.11° C | 51% | 1017 hPa | 0 mm | 0.89 m/s, 130° | 610 W/m² | - |
| 1777990112 | 26.11° C | 52% | 1017.1 hPa | 0 mm | 1.34 m/s, 196° | 599 W/m² | - |
| 1777989809 | 25.56° C | 52% | 1016.9 hPa | 0 mm | 0 m/s | 579 W/m² | - |
| 1777989506 | 25.56° C | 56% | 1017 hPa | 0 mm | 0.89 m/s, 203° | 561 W/m² | - |
| 1777989201 | 25.56° C | 56% | 1016.9 hPa | 0 mm | 1.79 m/s, 209° | 545 W/m² | - |
| 1777988898 | 25.56° C | 56% | 1016.7 hPa | 0 mm | 0.89 m/s, 189° | 537 W/m² | - |
| 1777988595 | 25.56° C | 56% | 1016.7 hPa | 0 mm | 0.45 m/s, 133° | 509 W/m² | - |
| 1777988291 | 24.44° C | 59% | 1016.8 hPa | 0 mm | 0 m/s | 494 W/m² | - |
| 1777987988 | 25° C | 58% | 1016.9 hPa | 0 mm | 0.89 m/s, 172° | 485 W/m² | - |
| 1777987685 | 25° C | 60% | 1016.7 hPa | 0 mm | 0 m/s | 225 W/m² | - |
| 1777987382 | 24.44° C | 62% | 1016.6 hPa | 0 mm | 0.45 m/s, 147° | 488 W/m² | - |
| 1777987079 | 23.89° C | 63% | 1016.9 hPa | 0 mm | 0 m/s | 432 W/m² | - |
| 1777986776 | 22.78° C | 64% | 1016.8 hPa | 0 mm | 0 m/s | 414 W/m² | - |
| 1777986474 | 23.33° C | 67% | 1016.7 hPa | 0 mm | 0 m/s | 129 W/m² | - |
| 1777986172 | 22.78° C | 65% | 1016.8 hPa | 0 mm | 0 m/s | 435 W/m² | - |
| 1777985868 | 23.33° C | 62% | 1016.9 hPa | 0 mm | 0.45 m/s, 133° | 267 W/m² | - |
* Rain latest hour (hover to see other rain measurements)
** Current wind speed in m/s (hover to see current wind gust speed)